sensor_id;sensor_type;location;lat;lon;timestamp;temperature;humidity
21340;DHT22;10828;47.064;15.422;2022-12-18T00:01:33;-1.10;99.90
21340;DHT22;10828;47.064;15.422;2022-12-18T00:04:01;-1.20;99.90
21340;DHT22;10828;47.064;15.422;2022-12-18T00:06:29;-1.30;99.90
21340;DHT22;10828;47.064;15.422;2022-12-18T00:08:56;-1.30;99.90
21340;DHT22;10828;47.064;15.422;2022-12-18T00:11:27;-1.20;99.90
21340;DHT22;10828;47.064;15.422;2022-12-18T00:14:00;-1.20;99.90
21340;DHT22;10828;47.064;15.422;2022-12-18T00:16:27;-1.10;99.90
21340;DHT22;10828;47.064;15.422;2022-12-18T00:18:54;-1.10;99.90
21340;DHT22;10828;47.064;15.422;2022-12-18T00:21:21;-1.20;99.90
21340;DHT22;10828;47.064;15.422;2022-12-18T00:23:49;-1.30;99.90
21340;DHT22;10828;47.064;15.422;2022-12-18T00:26:17;-1.20;99.90
21340;DHT22;10828;47.064;15.422;2022-12-18T00:28:44;-1.20;99.90
21340;DHT22;10828;47.064;15.422;2022-12-18T00:31:13;-1.20;99.90
21340;DHT22;10828;47.064;15.422;2022-12-18T00:33:39;-1.30;99.90
21340;DHT22;10828;47.064;15.422;2022-12-18T00:36:12;-1.30;99.90
21340;DHT22;10828;47.064;15.422;2022-12-18T00:38:39;-1.30;99.90
21340;DHT22;10828;47.064;15.422;2022-12-18T00:41:06;-1.30;99.90
21340;DHT22;10828;47.064;15.422;2022-12-18T00:43:31;-1.30;99.90
21340;DHT22;10828;47.064;15.422;2022-12-18T00:45:57;-1.30;99.90
21340;DHT22;10828;47.064;15.422;2022-12-18T00:48:23;-1.30;99.90
21340;DHT22;10828;47.064;15.422;2022-12-18T00:50:49;-1.30;99.90
21340;DHT22;10828;47.064;15.422;2022-12-18T00:53:15;-1.30;99.90
21340;DHT22;10828;47.064;15.422;2022-12-18T00:55:41;-1.30;99.90
21340;DHT22;10828;47.064;15.422;2022-12-18T00:58:08;-1.30;99.90
21340;DHT22;10828;47.064;15.422;2022-12-18T01:00:36;-1.20;99.90
21340;DHT22;10828;47.064;15.422;2022-12-18T01:03:02;-1.20;99.90
21340;DHT22;10828;47.064;15.422;2022-12-18T01:05:27;-1.30;99.90
21340;DHT22;10828;47.064;15.422;2022-12-18T01:07:55;-1.30;99.90
21340;DHT22;10828;47.064;15.422;2022-12-18T01:10:21;-1.40;99.90
21340;DHT22;10828;47.064;15.422;2022-12-18T01:12:47;-1.40;99.90
21340;DHT22;10828;47.064;15.422;2022-12-18T01:15:16;-1.40;99.90
21340;DHT22;10828;47.064;15.422;2022-12-18T01:17:42;-1.50;99.90
21340;DHT22;10828;47.064;15.422;2022-12-18T01:20:08;-1.50;99.90
21340;DHT22;10828;47.064;15.422;2022-12-18T01:22:36;-1.50;99.90
21340;DHT22;10828;47.064;15.422;2022-12-18T01:25:02;-1.60;99.90
21340;DHT22;10828;47.064;15.422;2022-12-18T01:27:27;-1.60;99.90
21340;DHT22;10828;47.064;15.422;2022-12-18T01:29:53;-1.60;99.90
21340;DHT22;10828;47.064;15.422;2022-12-18T01:32:20;-1.70;99.90
21340;DHT22;10828;47.064;15.422;2022-12-18T01:34:45;-1.70;99.90
21340;DHT22;10828;47.064;15.422;2022-12-18T01:37:11;-1.70;99.90
21340;DHT22;10828;47.064;15.422;2022-12-18T01:39:37;-1.60;99.90
21340;DHT22;10828;47.064;15.422;2022-12-18T01:42:11;-1.60;99.90
21340;DHT22;10828;47.064;15.422;2022-12-18T01:45:03;-1.60;99.90
21340;DHT22;10828;47.064;15.422;2022-12-18T01:50:00;-1.80;99.90
21340;DHT22;10828;47.064;15.422;2022-12-18T01:52:34;-1.90;99.90
21340;DHT22;10828;47.064;15.422;2022-12-18T01:55:03;-2.00;99.90
21340;DHT22;10828;47.064;15.422;2022-12-18T01:57:30;-2.00;99.90
21340;DHT22;10828;47.064;15.422;2022-12-18T02:00:00;-2.00;99.90
21340;DHT22;10828;47.064;15.422;2022-12-18T02:02:28;-2.00;99.90
21340;DHT22;10828;47.064;15.422;2022-12-18T02:04:54;-2.00;99.90
21340;DHT22;10828;47.064;15.422;2022-12-18T02:07:22;-2.00;99.90
21340;DHT22;10828;47.064;15.422;2022-12-18T02:12:23;-2.00;99.90
21340;DHT22;10828;47.064;15.422;2022-12-18T02:15:06;-1.90;99.90
21340;DHT22;10828;47.064;15.422;2022-12-18T02:17:45;-1.90;99.90
21340;DHT22;10828;47.064;15.422;2022-12-18T02:20:35;-1.90;99.90
21340;DHT22;10828;47.064;15.422;2022-12-18T02:26:27;-2.10;99.90
21340;DHT22;10828;47.064;15.422;2022-12-18T02:28:59;-2.10;99.90
21340;DHT22;10828;47.064;15.422;2022-12-18T02:31:28;-2.00;99.90
21340;DHT22;10828;47.064;15.422;2022-12-18T02:34:00;-2.00;99.90
21340;DHT22;10828;47.064;15.422;2022-12-18T02:36:28;-2.00;99.90
21340;DHT22;10828;47.064;15.422;2022-12-18T02:38:54;-1.90;99.90
21340;DHT22;10828;47.064;15.422;2022-12-18T02:41:21;-2.10;99.90
21340;DHT22;10828;47.064;15.422;2022-12-18T02:44:09;-2.40;99.90
21340;DHT22;10828;47.064;15.422;2022-12-18T02:49:42;-2.70;99.90
21340;DHT22;10828;47.064;15.422;2022-12-18T02:55:47;-3.00;99.90
21340;DHT22;10828;47.064;15.422;2022-12-18T02:58:30;-3.00;99.90
21340;DHT22;10828;47.064;15.422;2022-12-18T03:00:58;-3.10;99.90
21340;DHT22;10828;47.064;15.422;2022-12-18T03:03:50;-3.10;99.90
21340;DHT22;10828;47.064;15.422;2022-12-18T03:06:43;-3.30;99.90
21340;DHT22;10828;47.064;15.422;2022-12-18T03:09:14;-3.30;99.90
21340;DHT22;10828;47.064;15.422;2022-12-18T03:11:44;-3.40;99.90
21340;DHT22;10828;47.064;15.422;2022-12-18T03:14:32;-3.50;99.90
21340;DHT22;10828;47.064;15.422;2022-12-18T03:17:02;-3.50;99.90
21340;DHT22;10828;47.064;15.422;2022-12-18T03:19:32;-3.50;99.90
21340;DHT22;10828;47.064;15.422;2022-12-18T03:22:00;-3.50;99.90
21340;DHT22;10828;47.064;15.422;2022-12-18T03:24:30;-3.60;99.90
21340;DHT22;10828;47.064;15.422;2022-12-18T03:27:01;-3.60;99.90
21340;DHT22;10828;47.064;15.422;2022-12-18T03:29:34;-3.70;99.90
21340;DHT22;10828;47.064;15.422;2022-12-18T03:32:12;-3.70;99.90
21340;DHT22;10828;47.064;15.422;2022-12-18T03:34:41;-3.80;99.90
21340;DHT22;10828;47.064;15.422;2022-12-18T03:37:08;-3.80;99.90
21340;DHT22;10828;47.064;15.422;2022-12-18T03:39:35;-3.70;99.90
21340;DHT22;10828;47.064;15.422;2022-12-18T03:42:36;-3.70;99.90
21340;DHT22;10828;47.064;15.422;2022-12-18T03:47:41;-3.20;99.90
21340;DHT22;10828;47.064;15.422;2022-12-18T03:55:37;-3.10;99.90
21340;DHT22;10828;47.064;15.422;2022-12-18T03:58:04;-3.10;99.90
21340;DHT22;10828;47.064;15.422;2022-12-18T04:00:31;-3.10;99.90
21340;DHT22;10828;47.064;15.422;2022-12-18T04:03:01;-3.10;99.90
21340;DHT22;10828;47.064;15.422;2022-12-18T04:05:28;-3.10;99.90
21340;DHT22;10828;47.064;15.422;2022-12-18T04:07:56;-3.10;99.90
21340;DHT22;10828;47.064;15.422;2022-12-18T04:10:23;-3.10;99.90
21340;DHT22;10828;47.064;15.422;2022-12-18T04:12:48;-3.00;99.90
21340;DHT22;10828;47.064;15.422;2022-12-18T04:15:14;-3.10;99.90
21340;DHT22;10828;47.064;15.422;2022-12-18T04:17:47;-3.10;99.90
21340;DHT22;10828;47.064;15.422;2022-12-18T04:20:16;-3.10;99.90
21340;DHT22;10828;47.064;15.422;2022-12-18T04:22:42;-3.20;99.90
21340;DHT22;10828;47.064;15.422;2022-12-18T04:25:11;-3.30;99.90
21340;DHT22;10828;47.064;15.422;2022-12-18T04:27:37;-3.20;99.90
21340;DHT22;10828;47.064;15.422;2022-12-18T04:30:03;-3.20;99.90
21340;DHT22;10828;47.064;15.422;2022-12-18T04:32:29;-3.20;99.90
21340;DHT22;10828;47.064;15.422;2022-12-18T04:34:54;-3.20;99.90
21340;DHT22;10828;47.064;15.422;2022-12-18T04:37:21;-3.20;99.90
21340;DHT22;10828;47.064;15.422;2022-12-18T04:39:46;-3.20;99.90
21340;DHT22;10828;47.064;15.422;2022-12-18T04:42:12;-3.30;99.90
21340;DHT22;10828;47.064;15.422;2022-12-18T04:44:45;-3.30;99.90
21340;DHT22;10828;47.064;15.422;2022-12-18T04:47:10;-3.40;99.90
21340;DHT22;10828;47.064;15.422;2022-12-18T04:49:36;-3.40;99.90
21340;DHT22;10828;47.064;15.422;2022-12-18T04:52:01;-3.50;99.90
21340;DHT22;10828;47.064;15.422;2022-12-18T04:54:27;-3.60;99.90
21340;DHT22;10828;47.064;15.422;2022-12-18T04:56:53;-3.60;99.90
21340;DHT22;10828;47.064;15.422;2022-12-18T04:59:18;-3.60;99.90
21340;DHT22;10828;47.064;15.422;2022-12-18T05:01:44;-3.60;99.90
21340;DHT22;10828;47.064;15.422;2022-12-18T05:04:10;-3.70;99.90
21340;DHT22;10828;47.064;15.422;2022-12-18T05:06:36;-3.60;99.90
21340;DHT22;10828;47.064;15.422;2022-12-18T05:09:01;-3.60;99.90
21340;DHT22;10828;47.064;15.422;2022-12-18T05:11:27;-3.60;99.90
21340;DHT22;10828;47.064;15.422;2022-12-18T05:14:01;-3.70;99.90
21340;DHT22;10828;47.064;15.422;2022-12-18T05:16:28;-3.70;99.90
21340;DHT22;10828;47.064;15.422;2022-12-18T05:18:53;-3.80;99.90
21340;DHT22;10828;47.064;15.422;2022-12-18T05:21:19;-3.80;99.90
21340;DHT22;10828;47.064;15.422;2022-12-18T05:23:46;-3.80;99.90
21340;DHT22;10828;47.064;15.422;2022-12-18T05:26:15;-3.80;99.90
21340;DHT22;10828;47.064;15.422;2022-12-18T05:28:41;-3.80;99.90
21340;DHT22;10828;47.064;15.422;2022-12-18T05:31:07;-3.70;99.90
21340;DHT22;10828;47.064;15.422;2022-12-18T05:33:40;-3.70;99.90
21340;DHT22;10828;47.064;15.422;2022-12-18T05:36:07;-3.70;99.90
21340;DHT22;10828;47.064;15.422;2022-12-18T05:38:35;-3.60;99.90
21340;DHT22;10828;47.064;15.422;2022-12-18T05:41:01;-3.60;99.90
21340;DHT22;10828;47.064;15.422;2022-12-18T05:43:27;-3.70;99.90
21340;DHT22;10828;47.064;15.422;2022-12-18T05:45:54;-3.70;99.90
21340;DHT22;10828;47.064;15.422;2022-12-18T05:48:21;-3.70;99.90
21340;DHT22;10828;47.064;15.422;2022-12-18T05:50:48;-3.60;99.90
21340;DHT22;10828;47.064;15.422;2022-12-18T05:53:15;-3.70;99.90
21340;DHT22;10828;47.064;15.422;2022-12-18T05:55:43;-3.70;99.90
21340;DHT22;10828;47.064;15.422;2022-12-18T05:58:10;-3.70;99.90
21340;DHT22;10828;47.064;15.422;2022-12-18T06:00:40;-3.70;99.90
21340;DHT22;10828;47.064;15.422;2022-12-18T06:03:07;-3.70;99.90
21340;DHT22;10828;47.064;15.422;2022-12-18T06:05:38;-3.70;99.90
21340;DHT22;10828;47.064;15.422;2022-12-18T06:08:07;-3.70;99.90
21340;DHT22;10828;47.064;15.422;2022-12-18T06:10:33;-3.70;99.90
21340;DHT22;10828;47.064;15.422;2022-12-18T06:12:59;-3.70;99.90
21340;DHT22;10828;47.064;15.422;2022-12-18T06:15:25;-3.70;99.90
21340;DHT22;10828;47.064;15.422;2022-12-18T06:17:50;-3.70;99.90
21340;DHT22;10828;47.064;15.422;2022-12-18T06:20:16;-3.70;99.90
21340;DHT22;10828;47.064;15.422;2022-12-18T06:22:41;-3.70;99.90
21340;DHT22;10828;47.064;15.422;2022-12-18T06:25:07;-3.70;99.90
21340;DHT22;10828;47.064;15.422;2022-12-18T06:27:33;-3.70;99.90
21340;DHT22;10828;47.064;15.422;2022-12-18T06:29:59;-3.80;99.90
21340;DHT22;10828;47.064;15.422;2022-12-18T06:32:25;-3.70;99.90
21340;DHT22;10828;47.064;15.422;2022-12-18T06:34:51;-3.70;99.90
21340;DHT22;10828;47.064;15.422;2022-12-18T06:37:16;-3.80;99.90
21340;DHT22;10828;47.064;15.422;2022-12-18T06:39:42;-3.70;99.90
21340;DHT22;10828;47.064;15.422;2022-12-18T06:42:08;-3.70;99.90
21340;DHT22;10828;47.064;15.422;2022-12-18T06:44:33;-3.70;99.90
21340;DHT22;10828;47.064;15.422;2022-12-18T06:46:59;-3.70;99.90
21340;DHT22;10828;47.064;15.422;2022-12-18T06:49:24;-3.70;99.90
21340;DHT22;10828;47.064;15.422;2022-12-18T06:51:50;-3.70;99.90
21340;DHT22;10828;47.064;15.422;2022-12-18T06:54:15;-3.60;99.90
21340;DHT22;10828;47.064;15.422;2022-12-18T06:56:41;-3.40;99.90
21340;DHT22;10828;47.064;15.422;2022-12-18T06:59:07;-3.40;99.90
21340;DHT22;10828;47.064;15.422;2022-12-18T07:01:32;-3.50;99.90
21340;DHT22;10828;47.064;15.422;2022-12-18T07:03:58;-3.40;99.90
21340;DHT22;10828;47.064;15.422;2022-12-18T07:06:25;-3.40;99.90
21340;DHT22;10828;47.064;15.422;2022-12-18T07:08:52;-3.30;99.90
21340;DHT22;10828;47.064;15.422;2022-12-18T07:11:18;-3.30;99.90
21340;DHT22;10828;47.064;15.422;2022-12-18T07:13:45;-3.30;99.90
21340;DHT22;10828;47.064;15.422;2022-12-18T07:16:14;-3.30;99.90
21340;DHT22;10828;47.064;15.422;2022-12-18T07:18:40;-3.20;99.90
21340;DHT22;10828;47.064;15.422;2022-12-18T07:21:07;-3.20;99.90
21340;DHT22;10828;47.064;15.422;2022-12-18T07:23:35;-3.20;99.90
21340;DHT22;10828;47.064;15.422;2022-12-18T07:26:12;-3.10;99.90
21340;DHT22;10828;47.064;15.422;2022-12-18T07:28:39;-2.90;99.90
21340;DHT22;10828;47.064;15.422;2022-12-18T07:31:14;-2.80;99.90
21340;DHT22;10828;47.064;15.422;2022-12-18T07:33:40;-2.80;99.90
21340;DHT22;10828;47.064;15.422;2022-12-18T07:36:07;-2.70;99.90
21340;DHT22;10828;47.064;15.422;2022-12-18T07:38:36;-2.70;99.90
21340;DHT22;10828;47.064;15.422;2022-12-18T07:41:04;-2.60;99.90
21340;DHT22;10828;47.064;15.422;2022-12-18T07:43:30;-2.60;99.90
21340;DHT22;10828;47.064;15.422;2022-12-18T07:45:56;-2.50;99.90
21340;DHT22;10828;47.064;15.422;2022-12-18T07:48:21;-2.40;99.90
21340;DHT22;10828;47.064;15.422;2022-12-18T07:50:47;-2.40;99.90
21340;DHT22;10828;47.064;15.422;2022-12-18T07:53:13;-2.40;99.90
21340;DHT22;10828;47.064;15.422;2022-12-18T07:55:40;-2.30;99.90
21340;DHT22;10828;47.064;15.422;2022-12-18T07:58:06;-2.30;99.90
21340;DHT22;10828;47.064;15.422;2022-12-18T08:00:32;-2.30;99.90
21340;DHT22;10828;47.064;15.422;2022-12-18T08:02:58;-2.30;99.90
21340;DHT22;10828;47.064;15.422;2022-12-18T08:05:23;-2.30;99.90
21340;DHT22;10828;47.064;15.422;2022-12-18T08:07:49;-2.30;99.90
21340;DHT22;10828;47.064;15.422;2022-12-18T08:10:15;-2.30;99.90
21340;DHT22;10828;47.064;15.422;2022-12-18T08:12:42;-2.30;99.90
21340;DHT22;10828;47.064;15.422;2022-12-18T08:15:08;-2.30;99.90
21340;DHT22;10828;47.064;15.422;2022-12-18T08:17:33;-2.30;99.90
21340;DHT22;10828;47.064;15.422;2022-12-18T08:19:59;-2.20;99.90
21340;DHT22;10828;47.064;15.422;2022-12-18T08:22:25;-2.20;99.90
21340;DHT22;10828;47.064;15.422;2022-12-18T08:24:50;-2.10;99.90
21340;DHT22;10828;47.064;15.422;2022-12-18T08:27:16;-2.10;99.90
21340;DHT22;10828;47.064;15.422;2022-12-18T08:29:42;-2.00;99.90
21340;DHT22;10828;47.064;15.422;2022-12-18T08:32:08;-1.90;99.90
21340;DHT22;10828;47.064;15.422;2022-12-18T08:34:33;-1.80;99.90
21340;DHT22;10828;47.064;15.422;2022-12-18T08:36:59;-1.70;99.90
21340;DHT22;10828;47.064;15.422;2022-12-18T08:39:26;-1.80;99.90
21340;DHT22;10828;47.064;15.422;2022-12-18T08:41:53;-1.80;99.90
21340;DHT22;10828;47.064;15.422;2022-12-18T08:44:38;-1.80;99.90
21340;DHT22;10828;47.064;15.422;2022-12-18T08:47:05;-1.70;99.90
21340;DHT22;10828;47.064;15.422;2022-12-18T08:49:31;-1.60;99.90
21340;DHT22;10828;47.064;15.422;2022-12-18T08:51:57;-1.50;99.90
21340;DHT22;10828;47.064;15.422;2022-12-18T08:54:24;-1.50;99.90
21340;DHT22;10828;47.064;15.422;2022-12-18T08:56:51;-1.40;99.90
21340;DHT22;10828;47.064;15.422;2022-12-18T08:59:17;-1.40;99.90
21340;DHT22;10828;47.064;15.422;2022-12-18T09:01:46;-1.30;99.90
21340;DHT22;10828;47.064;15.422;2022-12-18T09:04:11;-1.20;99.90
21340;DHT22;10828;47.064;15.422;2022-12-18T09:06:37;-1.20;99.90
21340;DHT22;10828;47.064;15.422;2022-12-18T09:09:04;-1.20;99.90
21340;DHT22;10828;47.064;15.422;2022-12-18T09:11:31;-1.20;99.90
21340;DHT22;10828;47.064;15.422;2022-12-18T09:13:58;-1.20;99.90
21340;DHT22;10828;47.064;15.422;2022-12-18T09:16:26;-1.20;99.90
21340;DHT22;10828;47.064;15.422;2022-12-18T09:18:54;-1.20;99.90
21340;DHT22;10828;47.064;15.422;2022-12-18T09:21:25;-1.20;99.90
21340;DHT22;10828;47.064;15.422;2022-12-18T09:23:53;-1.10;99.90
21340;DHT22;10828;47.064;15.422;2022-12-18T09:26:19;-1.10;99.90
21340;DHT22;10828;47.064;15.422;2022-12-18T09:28:45;-1.10;99.90
21340;DHT22;10828;47.064;15.422;2022-12-18T09:31:13;-1.10;99.90
21340;DHT22;10828;47.064;15.422;2022-12-18T09:33:39;-1.20;99.90
21340;DHT22;10828;47.064;15.422;2022-12-18T09:36:09;-1.20;99.90
21340;DHT22;10828;47.064;15.422;2022-12-18T09:38:37;-1.20;99.90
21340;DHT22;10828;47.064;15.422;2022-12-18T09:49:58;-1.10;99.90
21340;DHT22;10828;47.064;15.422;2022-12-18T09:52:32;-1.10;99.90
21340;DHT22;10828;47.064;15.422;2022-12-18T09:57:51;-0.90;99.90
21340;DHT22;10828;47.064;15.422;2022-12-18T10:00:20;-1.00;99.90
21340;DHT22;10828;47.064;15.422;2022-12-18T10:02:50;-1.00;99.90
21340;DHT22;10828;47.064;15.422;2022-12-18T10:05:33;-1.00;99.90
21340;DHT22;10828;47.064;15.422;2022-12-18T10:08:11;-1.00;99.90
21340;DHT22;10828;47.064;15.422;2022-12-18T10:10:53;-1.00;99.90
21340;DHT22;10828;47.064;15.422;2022-12-18T10:16:13;-1.10;99.90
21340;DHT22;10828;47.064;15.422;2022-12-18T10:21:17;-1.10;99.90
21340;DHT22;10828;47.064;15.422;2022-12-18T10:26:36;-1.20;99.90
21340;DHT22;10828;47.064;15.422;2022-12-18T10:29:04;-1.30;99.90
21340;DHT22;10828;47.064;15.422;2022-12-18T10:31:34;-1.30;99.90
21340;DHT22;10828;47.064;15.422;2022-12-18T10:34:01;-1.40;99.90
21340;DHT22;10828;47.064;15.422;2022-12-18T10:36:26;-1.50;99.90
21340;DHT22;10828;47.064;15.422;2022-12-18T10:38:52;-1.40;99.90
21340;DHT22;10828;47.064;15.422;2022-12-18T10:43:45;-1.50;99.90
21340;DHT22;10828;47.064;15.422;2022-12-18T10:48:53;-1.50;99.90
21340;DHT22;10828;47.064;15.422;2022-12-18T10:54:02;-1.50;99.90
21340;DHT22;10828;47.064;15.422;2022-12-18T10:56:30;-1.40;99.90
21340;DHT22;10828;47.064;15.422;2022-12-18T10:59:13;-1.40;99.90
21340;DHT22;10828;47.064;15.422;2022-12-18T11:02:07;-1.40;99.90
21340;DHT22;10828;47.064;15.422;2022-12-18T11:04:52;-1.30;99.90
21340;DHT22;10828;47.064;15.422;2022-12-18T11:07:18;-1.30;99.90
21340;DHT22;10828;47.064;15.422;2022-12-18T11:10:00;-1.30;99.90
21340;DHT22;10828;47.064;15.422;2022-12-18T11:12:28;-1.30;99.90
21340;DHT22;10828;47.064;15.422;2022-12-18T11:14:56;-1.30;99.90
21340;DHT22;10828;47.064;15.422;2022-12-18T11:17:35;-1.20;99.90
21340;DHT22;10828;47.064;15.422;2022-12-18T11:20:03;-1.20;99.90
21340;DHT22;10828;47.064;15.422;2022-12-18T11:22:34;-1.20;99.90
21340;DHT22;10828;47.064;15.422;2022-12-18T11:25:18;-1.20;99.90
21340;DHT22;10828;47.064;15.422;2022-12-18T11:28:27;-1.30;99.90
21340;DHT22;10828;47.064;15.422;2022-12-18T11:31:21;-1.40;99.90
21340;DHT22;10828;47.064;15.422;2022-12-18T11:34:12;-1.30;99.90
21340;DHT22;10828;47.064;15.422;2022-12-18T11:36:45;-1.40;99.90
21340;DHT22;10828;47.064;15.422;2022-12-18T11:39:37;-1.50;99.90
21340;DHT22;10828;47.064;15.422;2022-12-18T11:42:35;-1.50;99.90
21340;DHT22;10828;47.064;15.422;2022-12-18T11:50:19;-1.50;99.90
21340;DHT22;10828;47.064;15.422;2022-12-18T11:52:46;-1.50;99.90
21340;DHT22;10828;47.064;15.422;2022-12-18T11:57:47;-1.50;99.90
21340;DHT22;10828;47.064;15.422;2022-12-18T12:00:22;-1.40;99.90
21340;DHT22;10828;47.064;15.422;2022-12-18T12:03:48;-1.50;99.90
21340;DHT22;10828;47.064;15.422;2022-12-18T12:12:05;-1.50;99.90
21340;DHT22;10828;47.064;15.422;2022-12-18T12:14:57;-1.50;99.90
21340;DHT22;10828;47.064;15.422;2022-12-18T12:17:45;-1.50;99.90
21340;DHT22;10828;47.064;15.422;2022-12-18T12:20:20;-1.40;99.90
21340;DHT22;10828;47.064;15.422;2022-12-18T12:39:42;-1.60;99.90
21340;DHT22;10828;47.064;15.422;2022-12-18T12:42:38;-1.60;99.90
21340;DHT22;10828;47.064;15.422;2022-12-18T12:45:50;-1.60;99.90
21340;DHT22;10828;47.064;15.422;2022-12-18T12:48:40;-1.60;99.90
21340;DHT22;10828;47.064;15.422;2022-12-18T12:51:24;-1.60;99.90
21340;DHT22;10828;47.064;15.422;2022-12-18T12:53:52;-1.70;99.90
21340;DHT22;10828;47.064;15.422;2022-12-18T12:56:20;-1.60;99.90
21340;DHT22;10828;47.064;15.422;2022-12-18T13:01:41;-1.60;99.90
21340;DHT22;10828;47.064;15.422;2022-12-18T13:04:26;-1.60;99.90
21340;DHT22;10828;47.064;15.422;2022-12-18T13:07:05;-1.50;99.90
21340;DHT22;10828;47.064;15.422;2022-12-18T13:09:33;-1.40;99.90
21340;DHT22;10828;47.064;15.422;2022-12-18T13:12:10;-1.30;99.90
21340;DHT22;10828;47.064;15.422;2022-12-18T13:15:13;-1.20;99.90
21340;DHT22;10828;47.064;15.422;2022-12-18T13:17:43;-1.20;99.90
21340;DHT22;10828;47.064;15.422;2022-12-18T13:20:12;-1.30;99.90
21340;DHT22;10828;47.064;15.422;2022-12-18T13:22:45;-1.30;99.90
21340;DHT22;10828;47.064;15.422;2022-12-18T13:25:36;-1.30;99.90
21340;DHT22;10828;47.064;15.422;2022-12-18T13:28:10;-1.40;99.90
21340;DHT22;10828;47.064;15.422;2022-12-18T13:30:50;-1.60;99.90
21340;DHT22;10828;47.064;15.422;2022-12-18T13:49:05;-1.20;99.90
21340;DHT22;10828;47.064;15.422;2022-12-18T13:51:33;-1.10;99.90
21340;DHT22;10828;47.064;15.422;2022-12-18T13:54:06;-1.10;99.90
21340;DHT22;10828;47.064;15.422;2022-12-18T13:56:44;-1.10;99.90
21340;DHT22;10828;47.064;15.422;2022-12-18T13:59:25;-1.10;99.90
21340;DHT22;10828;47.064;15.422;2022-12-18T14:01:56;-1.10;99.90
21340;DHT22;10828;47.064;15.422;2022-12-18T14:04:25;-1.00;99.90
21340;DHT22;10828;47.064;15.422;2022-12-18T14:07:15;-1.00;99.90
21340;DHT22;10828;47.064;15.422;2022-12-18T14:10:11;-1.20;99.90
21340;DHT22;10828;47.064;15.422;2022-12-18T14:12:32;-1.30;99.90
21340;DHT22;10828;47.064;15.422;2022-12-18T14:18:22;-1.60;99.90
21340;DHT22;10828;47.064;15.422;2022-12-18T14:20:49;-1.70;99.90
21340;DHT22;10828;47.064;15.422;2022-12-18T14:28:45;-1.60;99.90
21340;DHT22;10828;47.064;15.422;2022-12-18T14:31:22;-1.60;99.90
21340;DHT22;10828;47.064;15.422;2022-12-18T14:33:49;-1.60;99.90
21340;DHT22;10828;47.064;15.422;2022-12-18T14:36:23;-1.50;99.90
21340;DHT22;10828;47.064;15.422;2022-12-18T14:38:57;-1.50;99.90
21340;DHT22;10828;47.064;15.422;2022-12-18T14:41:24;-1.40;99.90
21340;DHT22;10828;47.064;15.422;2022-12-18T14:43:52;-1.40;99.90
21340;DHT22;10828;47.064;15.422;2022-12-18T14:52:01;-1.50;99.90
21340;DHT22;10828;47.064;15.422;2022-12-18T14:54:28;-1.50;99.90
21340;DHT22;10828;47.064;15.422;2022-12-18T14:57:04;-1.40;99.90
21340;DHT22;10828;47.064;15.422;2022-12-18T14:59:31;-1.40;99.90
21340;DHT22;10828;47.064;15.422;2022-12-18T15:04:44;-1.40;99.90
21340;DHT22;10828;47.064;15.422;2022-12-18T15:07:22;-1.40;99.90
21340;DHT22;10828;47.064;15.422;2022-12-18T15:20:53;-1.30;99.90
21340;DHT22;10828;47.064;15.422;2022-12-18T15:26:03;-1.10;99.90
21340;DHT22;10828;47.064;15.422;2022-12-18T15:28:51;-1.00;99.90
21340;DHT22;10828;47.064;15.422;2022-12-18T15:31:31;-0.90;99.90
21340;DHT22;10828;47.064;15.422;2022-12-18T15:34:23;-0.90;99.90
21340;DHT22;10828;47.064;15.422;2022-12-18T15:36:50;-0.80;99.90
21340;DHT22;10828;47.064;15.422;2022-12-18T15:39:18;-0.80;99.90
21340;DHT22;10828;47.064;15.422;2022-12-18T15:41:46;-0.80;99.90
21340;DHT22;10828;47.064;15.422;2022-12-18T15:44:30;-0.80;99.90
21340;DHT22;10828;47.064;15.422;2022-12-18T15:46:57;-0.80;99.90
21340;DHT22;10828;47.064;15.422;2022-12-18T15:49:23;-0.80;99.90
21340;DHT22;10828;47.064;15.422;2022-12-18T15:51:56;-0.80;99.90
21340;DHT22;10828;47.064;15.422;2022-12-18T15:54:24;-0.80;99.90
21340;DHT22;10828;47.064;15.422;2022-12-18T15:57:10;-0.80;99.90
21340;DHT22;10828;47.064;15.422;2022-12-18T15:59:49;-0.70;99.90
21340;DHT22;10828;47.064;15.422;2022-12-18T16:02:17;-0.70;99.90
21340;DHT22;10828;47.064;15.422;2022-12-18T16:04:44;-0.80;99.90
21340;DHT22;10828;47.064;15.422;2022-12-18T16:07:12;-0.80;99.90
21340;DHT22;10828;47.064;15.422;2022-12-18T16:09:38;-0.70;99.90
21340;DHT22;10828;47.064;15.422;2022-12-18T16:12:19;-0.70;99.90
21340;DHT22;10828;47.064;15.422;2022-12-18T16:14:46;-0.70;99.90
21340;DHT22;10828;47.064;15.422;2022-12-18T16:17:14;-0.70;99.90
21340;DHT22;10828;47.064;15.422;2022-12-18T16:19:40;-0.60;99.90
21340;DHT22;10828;47.064;15.422;2022-12-18T16:22:32;-0.70;99.90
21340;DHT22;10828;47.064;15.422;2022-12-18T16:24:59;-0.80;99.90
21340;DHT22;10828;47.064;15.422;2022-12-18T16:27:25;-0.90;99.90
21340;DHT22;10828;47.064;15.422;2022-12-18T16:29:52;-0.80;99.90
21340;DHT22;10828;47.064;15.422;2022-12-18T16:32:22;-0.80;99.90
21340;DHT22;10828;47.064;15.422;2022-12-18T16:34:51;-0.90;99.90
21340;DHT22;10828;47.064;15.422;2022-12-18T16:37:17;-0.90;99.90
21340;DHT22;10828;47.064;15.422;2022-12-18T16:39:45;-0.90;99.90
21340;DHT22;10828;47.064;15.422;2022-12-18T16:42:21;-0.80;99.90
21340;DHT22;10828;47.064;15.422;2022-12-18T16:44:48;-0.70;99.90
21340;DHT22;10828;47.064;15.422;2022-12-18T16:47:14;-0.60;99.90
21340;DHT22;10828;47.064;15.422;2022-12-18T16:49:41;-0.80;99.90
21340;DHT22;10828;47.064;15.422;2022-12-18T16:52:07;-1.00;99.90
21340;DHT22;10828;47.064;15.422;2022-12-18T16:54:33;-1.00;99.90
21340;DHT22;10828;47.064;15.422;2022-12-18T16:57:03;-1.10;99.90
21340;DHT22;10828;47.064;15.422;2022-12-18T16:59:30;-1.10;99.90
21340;DHT22;10828;47.064;15.422;2022-12-18T17:01:57;-1.20;99.90
21340;DHT22;10828;47.064;15.422;2022-12-18T17:04:23;-1.20;99.90
21340;DHT22;10828;47.064;15.422;2022-12-18T17:06:51;-1.20;99.90
21340;DHT22;10828;47.064;15.422;2022-12-18T17:09:21;-1.20;99.90
21340;DHT22;10828;47.064;15.422;2022-12-18T17:11:51;-1.10;99.90
21340;DHT22;10828;47.064;15.422;2022-12-18T17:14:34;-1.00;99.90
21340;DHT22;10828;47.064;15.422;2022-12-18T17:17:00;-0.90;99.90
21340;DHT22;10828;47.064;15.422;2022-12-18T17:19:27;-1.00;99.90
21340;DHT22;10828;47.064;15.422;2022-12-18T17:21:53;-1.20;99.90
21340;DHT22;10828;47.064;15.422;2022-12-18T17:24:21;-1.20;99.90
21340;DHT22;10828;47.064;15.422;2022-12-18T17:26:48;-1.20;99.90
21340;DHT22;10828;47.064;15.422;2022-12-18T17:29:18;-1.10;99.90
21340;DHT22;10828;47.064;15.422;2022-12-18T17:31:47;-1.00;99.90
21340;DHT22;10828;47.064;15.422;2022-12-18T17:34:15;-0.90;99.90
21340;DHT22;10828;47.064;15.422;2022-12-18T17:36:41;-0.90;99.90
21340;DHT22;10828;47.064;15.422;2022-12-18T17:39:09;-0.90;99.90
21340;DHT22;10828;47.064;15.422;2022-12-18T17:41:38;-0.90;99.90
21340;DHT22;10828;47.064;15.422;2022-12-18T17:44:05;-0.80;99.90
21340;DHT22;10828;47.064;15.422;2022-12-18T17:46:32;-0.80;99.90